This is the latest recevied weather packets stored in our database for station/object SK4BW-10. If no packets are shown the sender has not sent any weather packets the latest 10 day(s).
| Time | Temp. | Humidity | Pressure | Rain* | Wind** | Luminosity | Snow |
|---|---|---|---|---|---|---|---|
| 1777931862 | 3.33° C | 87% | 1001.2 hPa | - | - | - | - |
| 1777930961 | 3.89° C | 84% | 1000.9 hPa | - | - | - | - |
| 1777930060 | 4.44° C | 76% | 1000.5 hPa | - | - | - | - |
| 1777929159 | 5.56° C | 67% | 1000.6 hPa | - | - | - | - |
| 1777928257 | 7.22° C | 58% | 1000.2 hPa | - | - | - | - |
| 1777927356 | 10.56° C | 49% | 999.7 hPa | - | - | - | - |
| 1777926456 | 10.56° C | 49% | 999.7 hPa | - | - | - | - |
| 1777925555 | 11.11° C | 43% | 1000 hPa | - | - | - | - |
| 1777924655 | 11.67° C | 41% | 1000 hPa | - | - | - | - |
| 1777923754 | 10° C | 43% | 1000 hPa | - | - | - | - |
| 1777922853 | 9.44° C | 44% | 1000.2 hPa | - | - | - | - |
| 1777921952 | 8.89° C | 38% | 1000.3 hPa | - | - | - | - |
| 1777921051 | 8.89° C | 38% | 1000.3 hPa | - | - | - | - |
| 1777920150 | 9.44° C | 37% | 1000.5 hPa | - | - | - | - |
| 1777919249 | 11.11° C | 33% | 1000.6 hPa | - | - | - | - |
| 1777918349 | 10° C | 33% | 1000.6 hPa | - | - | - | - |
| 1777917449 | 10° C | 33% | 1000.5 hPa | - | - | - | - |
| 1777916548 | 10° C | 33% | 1000.5 hPa | - | - | - | - |
| 1777915647 | 10.56° C | 32% | 1000.5 hPa | - | - | - | - |
| 1777914746 | 11.67° C | 29% | 1000.5 hPa | - | - | - | - |
| 1777913846 | 11.67° C | 33% | 1000.6 hPa | - | - | - | - |
| 1777912944 | 11.67° C | 34% | 1000.5 hPa | - | - | - | - |
| 1777912043 | 11.67° C | 33% | 1000.4 hPa | - | - | - | - |
| 1777911143 | 11.67° C | 32% | 1000.4 hPa | - | - | - | - |
| 1777910242 | 11.67° C | 34% | 1000.4 hPa | - | - | - | - |
* Rain since midnight (hover to see other rain measurements)
** Current wind speed in m/s (hover to see current wind gust speed)